Frimley, United Kingdom
Current Conditions -  °F | °C
As of 9:20 AM on Tuesday 21 Oct 2014 (Local Time) from EGLF Reporting Station
Scattered Clouds Scattered Clouds  
Wind Chill: 55°   Ceiling: Unl
Heat Index: 55°   Visibility: 6mi
Dew Point: 50°   Wind: 17mph
Humidity: 82%   Direction: 270°W
Pressure: 29.59"   Gusts: NA
Location:  51.31°N, 0.74°W
Report Text: EGLF 210820Z 27015KT 240V300 9999 SCT025 13/10 Q1002
Loading
Personal Weather Stations






























Interactive Weather Map
Tropical Storm Tracking
New forecast layout! Learn more

10-Day Weather Forecast

Advertisements
Track Severe Weather on mobile